sensor_id;sensor_type;location;lat;lon;timestamp;temperature;humidity
21176;DHT22;10746;50.178;8.186;2023-03-05T00:00:12;2.50;99.90
21176;DHT22;10746;50.178;8.186;2023-03-05T00:02:39;2.50;99.90
21176;DHT22;10746;50.178;8.186;2023-03-05T00:05:07;2.50;99.90
21176;DHT22;10746;50.178;8.186;2023-03-05T00:07:35;2.40;99.90
21176;DHT22;10746;50.178;8.186;2023-03-05T00:10:04;2.40;99.90
21176;DHT22;10746;50.178;8.186;2023-03-05T00:12:31;2.40;99.90
21176;DHT22;10746;50.178;8.186;2023-03-05T00:14:57;2.40;99.90
21176;DHT22;10746;50.178;8.186;2023-03-05T00:17:24;2.40;99.90
21176;DHT22;10746;50.178;8.186;2023-03-05T00:19:51;2.30;99.90
21176;DHT22;10746;50.178;8.186;2023-03-05T00:22:17;2.30;99.90
21176;DHT22;10746;50.178;8.186;2023-03-05T00:24:49;2.30;99.90
21176;DHT22;10746;50.178;8.186;2023-03-05T00:27:16;2.40;99.90
21176;DHT22;10746;50.178;8.186;2023-03-05T00:29:42;2.40;99.90
21176;DHT22;10746;50.178;8.186;2023-03-05T00:32:09;2.40;99.90
21176;DHT22;10746;50.178;8.186;2023-03-05T00:34:36;2.30;99.90
21176;DHT22;10746;50.178;8.186;2023-03-05T00:37:03;2.40;99.90
21176;DHT22;10746;50.178;8.186;2023-03-05T00:39:29;2.40;99.90
21176;DHT22;10746;50.178;8.186;2023-03-05T00:41:58;2.40;99.90
21176;DHT22;10746;50.178;8.186;2023-03-05T00:44:24;2.30;99.90
21176;DHT22;10746;50.178;8.186;2023-03-05T00:46:51;2.40;99.90
21176;DHT22;10746;50.178;8.186;2023-03-05T00:49:18;2.40;99.90
21176;DHT22;10746;50.178;8.186;2023-03-05T00:51:45;2.40;99.90
21176;DHT22;10746;50.178;8.186;2023-03-05T00:54:12;2.40;99.90
21176;DHT22;10746;50.178;8.186;2023-03-05T00:56:38;2.30;99.90
21176;DHT22;10746;50.178;8.186;2023-03-05T00:59:07;2.30;99.90
21176;DHT22;10746;50.178;8.186;2023-03-05T01:01:33;2.30;99.90
21176;DHT22;10746;50.178;8.186;2023-03-05T01:04:00;2.30;99.90
21176;DHT22;10746;50.178;8.186;2023-03-05T01:06:27;2.30;99.90
21176;DHT22;10746;50.178;8.186;2023-03-05T01:08:54;2.30;99.90
21176;DHT22;10746;50.178;8.186;2023-03-05T01:11:22;2.30;99.90
21176;DHT22;10746;50.178;8.186;2023-03-05T01:13:48;2.30;99.90
21176;DHT22;10746;50.178;8.186;2023-03-05T01:16:16;2.30;99.90
21176;DHT22;10746;50.178;8.186;2023-03-05T01:18:43;2.30;99.90
21176;DHT22;10746;50.178;8.186;2023-03-05T01:21:10;2.30;99.90
21176;DHT22;10746;50.178;8.186;2023-03-05T01:23:37;2.30;99.90
21176;DHT22;10746;50.178;8.186;2023-03-05T01:26:04;2.30;99.90
21176;DHT22;10746;50.178;8.186;2023-03-05T01:28:30;2.30;99.90
21176;DHT22;10746;50.178;8.186;2023-03-05T01:30:58;2.30;99.90
21176;DHT22;10746;50.178;8.186;2023-03-05T01:33:26;2.20;99.90
21176;DHT22;10746;50.178;8.186;2023-03-05T01:35:52;2.20;99.90
21176;DHT22;10746;50.178;8.186;2023-03-05T01:38:19;2.20;99.90
21176;DHT22;10746;50.178;8.186;2023-03-05T01:40:46;2.20;99.90
21176;DHT22;10746;50.178;8.186;2023-03-05T01:43:24;2.20;99.90
21176;DHT22;10746;50.178;8.186;2023-03-05T01:46:21;2.20;99.90
21176;DHT22;10746;50.178;8.186;2023-03-05T01:48:53;2.10;99.90
21176;DHT22;10746;50.178;8.186;2023-03-05T01:51:24;2.20;99.90
21176;DHT22;10746;50.178;8.186;2023-03-05T01:53:53;2.10;99.90
21176;DHT22;10746;50.178;8.186;2023-03-05T01:56:21;2.20;99.90
21176;DHT22;10746;50.178;8.186;2023-03-05T01:58:49;2.20;99.90
21176;DHT22;10746;50.178;8.186;2023-03-05T02:01:16;2.20;99.90
21176;DHT22;10746;50.178;8.186;2023-03-05T02:03:44;2.10;99.90
21176;DHT22;10746;50.178;8.186;2023-03-05T02:06:13;2.10;99.90
21176;DHT22;10746;50.178;8.186;2023-03-05T02:08:40;2.10;99.90
21176;DHT22;10746;50.178;8.186;2023-03-05T02:11:06;2.10;99.90
21176;DHT22;10746;50.178;8.186;2023-03-05T02:13:35;2.10;99.90
21176;DHT22;10746;50.178;8.186;2023-03-05T02:16:05;2.10;99.90
21176;DHT22;10746;50.178;8.186;2023-03-05T02:18:33;2.10;99.90
21176;DHT22;10746;50.178;8.186;2023-03-05T02:21:03;2.10;99.90
21176;DHT22;10746;50.178;8.186;2023-03-05T02:23:31;2.10;99.90
21176;DHT22;10746;50.178;8.186;2023-03-05T02:26:01;2.20;99.90
21176;DHT22;10746;50.178;8.186;2023-03-05T02:28:32;2.10;99.90
21176;DHT22;10746;50.178;8.186;2023-03-05T02:30:59;2.10;99.90
21176;DHT22;10746;50.178;8.186;2023-03-05T02:33:26;2.10;99.90
21176;DHT22;10746;50.178;8.186;2023-03-05T02:35:53;2.10;99.90
21176;DHT22;10746;50.178;8.186;2023-03-05T02:38:21;2.00;99.90
21176;DHT22;10746;50.178;8.186;2023-03-05T02:40:48;2.00;99.90
21176;DHT22;10746;50.178;8.186;2023-03-05T02:43:15;2.10;99.90
21176;DHT22;10746;50.178;8.186;2023-03-05T02:45:41;2.10;99.90
21176;DHT22;10746;50.178;8.186;2023-03-05T02:48:08;2.10;99.90
21176;DHT22;10746;50.178;8.186;2023-03-05T02:50:35;2.00;99.90
21176;DHT22;10746;50.178;8.186;2023-03-05T02:53:04;2.00;99.90
21176;DHT22;10746;50.178;8.186;2023-03-05T02:55:32;2.00;99.90
21176;DHT22;10746;50.178;8.186;2023-03-05T02:57:59;2.00;99.90
21176;DHT22;10746;50.178;8.186;2023-03-05T03:00:26;2.00;99.90
21176;DHT22;10746;50.178;8.186;2023-03-05T03:02:53;2.00;99.90
21176;DHT22;10746;50.178;8.186;2023-03-05T03:05:20;2.00;99.90
21176;DHT22;10746;50.178;8.186;2023-03-05T03:07:47;2.00;99.90
21176;DHT22;10746;50.178;8.186;2023-03-05T03:10:14;2.00;99.90
21176;DHT22;10746;50.178;8.186;2023-03-05T03:12:43;2.00;99.90
21176;DHT22;10746;50.178;8.186;2023-03-05T03:15:12;2.00;99.90
21176;DHT22;10746;50.178;8.186;2023-03-05T03:17:39;2.00;99.90
21176;DHT22;10746;50.178;8.186;2023-03-05T03:20:08;2.00;99.90
21176;DHT22;10746;50.178;8.186;2023-03-05T03:22:36;2.00;99.90
21176;DHT22;10746;50.178;8.186;2023-03-05T03:25:04;2.00;99.90
21176;DHT22;10746;50.178;8.186;2023-03-05T03:27:31;2.00;99.90
21176;DHT22;10746;50.178;8.186;2023-03-05T03:29:59;2.10;99.90
21176;DHT22;10746;50.178;8.186;2023-03-05T03:32:29;2.10;99.90
21176;DHT22;10746;50.178;8.186;2023-03-05T03:34:56;2.10;99.90
21176;DHT22;10746;50.178;8.186;2023-03-05T03:37:23;2.00;99.90
21176;DHT22;10746;50.178;8.186;2023-03-05T03:39:50;2.00;99.90
21176;DHT22;10746;50.178;8.186;2023-03-05T03:42:17;2.10;99.90
21176;DHT22;10746;50.178;8.186;2023-03-05T03:44:44;2.00;99.90
21176;DHT22;10746;50.178;8.186;2023-03-05T03:47:12;2.00;99.90
21176;DHT22;10746;50.178;8.186;2023-03-05T03:49:39;2.00;99.90
21176;DHT22;10746;50.178;8.186;2023-03-05T03:52:06;2.00;99.90
21176;DHT22;10746;50.178;8.186;2023-03-05T03:54:34;2.00;99.90
21176;DHT22;10746;50.178;8.186;2023-03-05T03:57:01;2.10;99.90
21176;DHT22;10746;50.178;8.186;2023-03-05T03:59:28;2.00;99.90
21176;DHT22;10746;50.178;8.186;2023-03-05T04:01:54;1.90;99.90
21176;DHT22;10746;50.178;8.186;2023-03-05T04:04:22;1.80;99.90
21176;DHT22;10746;50.178;8.186;2023-03-05T04:06:51;1.80;99.90
21176;DHT22;10746;50.178;8.186;2023-03-05T04:09:17;1.80;99.90
21176;DHT22;10746;50.178;8.186;2023-03-05T04:11:44;1.80;99.90
21176;DHT22;10746;50.178;8.186;2023-03-05T04:14:11;1.80;99.90
21176;DHT22;10746;50.178;8.186;2023-03-05T04:16:38;1.80;99.90
21176;DHT22;10746;50.178;8.186;2023-03-05T04:19:04;1.80;99.90
21176;DHT22;10746;50.178;8.186;2023-03-05T04:21:32;1.70;99.90
21176;DHT22;10746;50.178;8.186;2023-03-05T04:24:00;1.80;99.90
21176;DHT22;10746;50.178;8.186;2023-03-05T04:26:27;1.80;99.90
21176;DHT22;10746;50.178;8.186;2023-03-05T04:28:54;1.70;99.90
21176;DHT22;10746;50.178;8.186;2023-03-05T04:31:20;1.70;99.90
21176;DHT22;10746;50.178;8.186;2023-03-05T04:33:48;1.70;99.90
21176;DHT22;10746;50.178;8.186;2023-03-05T04:36:15;1.70;99.90
21176;DHT22;10746;50.178;8.186;2023-03-05T04:38:43;1.60;99.90
21176;DHT22;10746;50.178;8.186;2023-03-05T04:41:09;1.60;99.90
21176;DHT22;10746;50.178;8.186;2023-03-05T04:43:36;1.70;99.90
21176;DHT22;10746;50.178;8.186;2023-03-05T04:46:03;1.70;99.90
21176;DHT22;10746;50.178;8.186;2023-03-05T04:48:30;1.60;99.90
21176;DHT22;10746;50.178;8.186;2023-03-05T04:50:57;1.70;99.90
21176;DHT22;10746;50.178;8.186;2023-03-05T04:53:24;1.60;99.90
21176;DHT22;10746;50.178;8.186;2023-03-05T04:55:55;1.60;99.90
21176;DHT22;10746;50.178;8.186;2023-03-05T04:58:22;1.50;99.90
21176;DHT22;10746;50.178;8.186;2023-03-05T05:00:50;1.60;99.90
21176;DHT22;10746;50.178;8.186;2023-03-05T05:03:16;1.60;99.90
21176;DHT22;10746;50.178;8.186;2023-03-05T05:05:43;1.60;99.90
21176;DHT22;10746;50.178;8.186;2023-03-05T05:08:10;1.40;99.90
21176;DHT22;10746;50.178;8.186;2023-03-05T05:10:36;1.40;99.90
21176;DHT22;10746;50.178;8.186;2023-03-05T05:13:05;1.40;99.90
21176;DHT22;10746;50.178;8.186;2023-03-05T05:15:32;1.40;99.90
21176;DHT22;10746;50.178;8.186;2023-03-05T05:17:59;1.40;99.90
21176;DHT22;10746;50.178;8.186;2023-03-05T05:20:26;1.50;99.90
21176;DHT22;10746;50.178;8.186;2023-03-05T05:22:53;1.40;99.90
21176;DHT22;10746;50.178;8.186;2023-03-05T05:25:19;1.60;99.90
21176;DHT22;10746;50.178;8.186;2023-03-05T05:27:46;1.50;99.90
21176;DHT22;10746;50.178;8.186;2023-03-05T05:30:14;1.50;99.90
21176;DHT22;10746;50.178;8.186;2023-03-05T05:32:41;1.50;99.90
21176;DHT22;10746;50.178;8.186;2023-03-05T05:35:09;1.50;99.90
21176;DHT22;10746;50.178;8.186;2023-03-05T05:37:36;1.50;99.90
21176;DHT22;10746;50.178;8.186;2023-03-05T05:40:03;1.50;99.90
21176;DHT22;10746;50.178;8.186;2023-03-05T05:42:31;1.40;99.90
21176;DHT22;10746;50.178;8.186;2023-03-05T05:44:57;1.40;99.90
21176;DHT22;10746;50.178;8.186;2023-03-05T05:47:25;1.30;99.90
21176;DHT22;10746;50.178;8.186;2023-03-05T05:49:52;1.30;99.90
21176;DHT22;10746;50.178;8.186;2023-03-05T05:52:19;1.30;99.90
21176;DHT22;10746;50.178;8.186;2023-03-05T05:54:46;1.40;99.90
21176;DHT22;10746;50.178;8.186;2023-03-05T05:57:13;1.40;99.90
21176;DHT22;10746;50.178;8.186;2023-03-05T05:59:40;1.40;99.90
21176;DHT22;10746;50.178;8.186;2023-03-05T06:02:07;1.50;99.90
21176;DHT22;10746;50.178;8.186;2023-03-05T06:04:37;1.50;99.90
21176;DHT22;10746;50.178;8.186;2023-03-05T06:07:05;1.60;99.90
21176;DHT22;10746;50.178;8.186;2023-03-05T06:09:33;1.60;99.90
21176;DHT22;10746;50.178;8.186;2023-03-05T06:12:00;1.50;99.90
21176;DHT22;10746;50.178;8.186;2023-03-05T06:14:27;1.50;99.90
21176;DHT22;10746;50.178;8.186;2023-03-05T06:16:54;1.50;99.90
21176;DHT22;10746;50.178;8.186;2023-03-05T06:19:21;1.60;99.90
21176;DHT22;10746;50.178;8.186;2023-03-05T06:21:49;1.50;99.90
21176;DHT22;10746;50.178;8.186;2023-03-05T06:24:16;1.50;99.90
21176;DHT22;10746;50.178;8.186;2023-03-05T06:26:43;1.50;99.90
21176;DHT22;10746;50.178;8.186;2023-03-05T06:29:13;1.50;99.90
21176;DHT22;10746;50.178;8.186;2023-03-05T06:31:39;1.50;99.90
21176;DHT22;10746;50.178;8.186;2023-03-05T06:34:06;1.50;99.90
21176;DHT22;10746;50.178;8.186;2023-03-05T06:36:33;1.50;99.90
21176;DHT22;10746;50.178;8.186;2023-03-05T06:39:01;1.50;99.90
21176;DHT22;10746;50.178;8.186;2023-03-05T06:41:30;1.50;99.90
21176;DHT22;10746;50.178;8.186;2023-03-05T06:43:58;1.50;99.90
21176;DHT22;10746;50.178;8.186;2023-03-05T06:46:28;1.50;99.90
21176;DHT22;10746;50.178;8.186;2023-03-05T06:48:56;1.50;99.90
21176;DHT22;10746;50.178;8.186;2023-03-05T06:51:24;1.50;99.90
21176;DHT22;10746;50.178;8.186;2023-03-05T06:53:52;1.50;99.90
21176;DHT22;10746;50.178;8.186;2023-03-05T06:56:21;1.50;99.90
21176;DHT22;10746;50.178;8.186;2023-03-05T06:58:49;1.50;99.90
21176;DHT22;10746;50.178;8.186;2023-03-05T07:01:17;1.50;99.90
21176;DHT22;10746;50.178;8.186;2023-03-05T07:03:47;1.50;99.90
21176;DHT22;10746;50.178;8.186;2023-03-05T07:06:14;1.50;99.90
21176;DHT22;10746;50.178;8.186;2023-03-05T07:08:41;1.40;99.90
21176;DHT22;10746;50.178;8.186;2023-03-05T07:11:09;1.50;99.90
21176;DHT22;10746;50.178;8.186;2023-03-05T07:13:38;1.50;99.90
21176;DHT22;10746;50.178;8.186;2023-03-05T07:16:06;1.50;99.90
21176;DHT22;10746;50.178;8.186;2023-03-05T07:18:33;1.50;99.90
21176;DHT22;10746;50.178;8.186;2023-03-05T07:21:01;1.50;99.90
21176;DHT22;10746;50.178;8.186;2023-03-05T07:23:29;1.50;99.90
21176;DHT22;10746;50.178;8.186;2023-03-05T07:25:55;1.50;99.90
21176;DHT22;10746;50.178;8.186;2023-03-05T07:28:22;1.40;99.90
21176;DHT22;10746;50.178;8.186;2023-03-05T07:30:55;1.50;99.90
21176;DHT22;10746;50.178;8.186;2023-03-05T07:33:23;1.50;99.90
21176;DHT22;10746;50.178;8.186;2023-03-05T07:35:50;1.50;99.90
21176;DHT22;10746;50.178;8.186;2023-03-05T07:38:16;1.50;99.90
21176;DHT22;10746;50.178;8.186;2023-03-05T07:40:43;1.50;99.90
21176;DHT22;10746;50.178;8.186;2023-03-05T07:43:10;1.50;99.90
21176;DHT22;10746;50.178;8.186;2023-03-05T07:45:38;1.60;99.90
21176;DHT22;10746;50.178;8.186;2023-03-05T07:48:07;1.60;99.90
21176;DHT22;10746;50.178;8.186;2023-03-05T07:50:34;1.50;99.90
21176;DHT22;10746;50.178;8.186;2023-03-05T07:53:01;1.60;99.90
21176;DHT22;10746;50.178;8.186;2023-03-05T07:55:27;1.60;99.90
21176;DHT22;10746;50.178;8.186;2023-03-05T07:57:54;1.60;99.90
21176;DHT22;10746;50.178;8.186;2023-03-05T08:00:21;1.60;99.90
21176;DHT22;10746;50.178;8.186;2023-03-05T08:02:48;1.60;99.90
21176;DHT22;10746;50.178;8.186;2023-03-05T08:05:17;1.60;99.90
21176;DHT22;10746;50.178;8.186;2023-03-05T08:07:43;1.60;99.90
21176;DHT22;10746;50.178;8.186;2023-03-05T08:10:10;1.60;99.90
21176;DHT22;10746;50.178;8.186;2023-03-05T08:12:37;1.60;99.90
21176;DHT22;10746;50.178;8.186;2023-03-05T08:15:05;1.60;99.90
21176;DHT22;10746;50.178;8.186;2023-03-05T08:17:31;1.60;99.90
21176;DHT22;10746;50.178;8.186;2023-03-05T08:19:58;1.60;99.90
21176;DHT22;10746;50.178;8.186;2023-03-05T08:22:31;1.60;99.90
21176;DHT22;10746;50.178;8.186;2023-03-05T08:24:59;1.70;99.90
21176;DHT22;10746;50.178;8.186;2023-03-05T08:27:26;1.70;99.90
21176;DHT22;10746;50.178;8.186;2023-03-05T08:29:52;1.70;99.90
21176;DHT22;10746;50.178;8.186;2023-03-05T08:32:19;1.70;99.90
21176;DHT22;10746;50.178;8.186;2023-03-05T08:34:46;1.60;99.90
21176;DHT22;10746;50.178;8.186;2023-03-05T08:37:13;1.60;99.90
21176;DHT22;10746;50.178;8.186;2023-03-05T08:39:41;1.70;99.90
21176;DHT22;10746;50.178;8.186;2023-03-05T08:42:08;1.70;99.90
21176;DHT22;10746;50.178;8.186;2023-03-05T08:44:35;1.70;99.90
21176;DHT22;10746;50.178;8.186;2023-03-05T08:47:01;1.60;99.90
21176;DHT22;10746;50.178;8.186;2023-03-05T08:49:28;1.60;99.90
21176;DHT22;10746;50.178;8.186;2023-03-05T08:51:55;1.70;99.90
21176;DHT22;10746;50.178;8.186;2023-03-05T08:54:22;1.70;99.90
21176;DHT22;10746;50.178;8.186;2023-03-05T08:56:50;1.70;99.90
21176;DHT22;10746;50.178;8.186;2023-03-05T08:59:17;1.80;99.90
21176;DHT22;10746;50.178;8.186;2023-03-05T09:01:43;1.90;99.90
21176;DHT22;10746;50.178;8.186;2023-03-05T09:04:10;1.90;99.90
21176;DHT22;10746;50.178;8.186;2023-03-05T09:06:37;2.00;99.90
21176;DHT22;10746;50.178;8.186;2023-03-05T09:09:05;2.00;99.90
21176;DHT22;10746;50.178;8.186;2023-03-05T09:11:32;2.10;99.90
21176;DHT22;10746;50.178;8.186;2023-03-05T09:14:01;2.10;99.90
21176;DHT22;10746;50.178;8.186;2023-03-05T09:16:29;2.20;99.90
21176;DHT22;10746;50.178;8.186;2023-03-05T09:18:56;2.20;99.90
21176;DHT22;10746;50.178;8.186;2023-03-05T09:21:23;2.20;99.90
21176;DHT22;10746;50.178;8.186;2023-03-05T09:23:50;2.10;99.90
21176;DHT22;10746;50.178;8.186;2023-03-05T09:26:18;2.10;99.90
21176;DHT22;10746;50.178;8.186;2023-03-05T09:28:46;2.10;99.90
21176;DHT22;10746;50.178;8.186;2023-03-05T09:31:14;2.10;99.90
21176;DHT22;10746;50.178;8.186;2023-03-05T09:33:41;2.10;99.90
21176;DHT22;10746;50.178;8.186;2023-03-05T09:36:17;2.20;99.90
21176;DHT22;10746;50.178;8.186;2023-03-05T09:38:44;2.20;99.90
21176;DHT22;10746;50.178;8.186;2023-03-05T09:41:16;2.10;99.90
21176;DHT22;10746;50.178;8.186;2023-03-05T09:43:51;2.00;99.90
21176;DHT22;10746;50.178;8.186;2023-03-05T09:46:30;2.10;99.90
21176;DHT22;10746;50.178;8.186;2023-03-05T09:49:05;2.10;99.90
21176;DHT22;10746;50.178;8.186;2023-03-05T09:51:38;2.10;99.90
21176;DHT22;10746;50.178;8.186;2023-03-05T09:54:12;2.10;99.90
21176;DHT22;10746;50.178;8.186;2023-03-05T09:56:41;2.00;99.90
21176;DHT22;10746;50.178;8.186;2023-03-05T09:59:19;2.00;99.90
21176;DHT22;10746;50.178;8.186;2023-03-05T10:01:52;1.90;99.90
21176;DHT22;10746;50.178;8.186;2023-03-05T10:04:24;1.80;99.90
21176;DHT22;10746;50.178;8.186;2023-03-05T10:06:56;1.80;99.90
21176;DHT22;10746;50.178;8.186;2023-03-05T10:09:40;1.80;99.90
21176;DHT22;10746;50.178;8.186;2023-03-05T10:12:15;1.80;99.90
21176;DHT22;10746;50.178;8.186;2023-03-05T10:14:45;1.80;99.90
21176;DHT22;10746;50.178;8.186;2023-03-05T10:17:36;1.80;99.90
21176;DHT22;10746;50.178;8.186;2023-03-05T10:20:29;1.80;99.90
21176;DHT22;10746;50.178;8.186;2023-03-05T10:23:10;1.80;99.90
21176;DHT22;10746;50.178;8.186;2023-03-05T10:25:55;1.90;99.90
21176;DHT22;10746;50.178;8.186;2023-03-05T10:28:28;2.00;99.90
21176;DHT22;10746;50.178;8.186;2023-03-05T10:33:59;2.00;99.90
21176;DHT22;10746;50.178;8.186;2023-03-05T10:36:36;2.00;99.90
21176;DHT22;10746;50.178;8.186;2023-03-05T10:39:43;2.10;99.90
21176;DHT22;10746;50.178;8.186;2023-03-05T10:42:18;2.20;99.90
21176;DHT22;10746;50.178;8.186;2023-03-05T10:44:51;2.20;99.90
21176;DHT22;10746;50.178;8.186;2023-03-05T10:47:23;2.30;99.90
21176;DHT22;10746;50.178;8.186;2023-03-05T10:49:53;2.40;99.90
21176;DHT22;10746;50.178;8.186;2023-03-05T10:52:24;2.60;99.90
21176;DHT22;10746;50.178;8.186;2023-03-05T10:54:52;2.70;99.90
21176;DHT22;10746;50.178;8.186;2023-03-05T10:57:21;2.60;99.90
21176;DHT22;10746;50.178;8.186;2023-03-05T10:59:50;2.70;99.90
21176;DHT22;10746;50.178;8.186;2023-03-05T11:02:18;2.70;99.90
21176;DHT22;10746;50.178;8.186;2023-03-05T11:04:45;2.80;99.90
21176;DHT22;10746;50.178;8.186;2023-03-05T11:07:36;2.90;99.90
21176;DHT22;10746;50.178;8.186;2023-03-05T11:10:13;3.10;99.90
21176;DHT22;10746;50.178;8.186;2023-03-05T11:12:41;3.40;99.90
21176;DHT22;10746;50.178;8.186;2023-03-05T11:15:23;3.90;99.90
21176;DHT22;10746;50.178;8.186;2023-03-05T11:18:18;4.30;99.90
21176;DHT22;10746;50.178;8.186;2023-03-05T11:20:46;4.30;99.90
21176;DHT22;10746;50.178;8.186;2023-03-05T11:23:15;4.70;99.90
21176;DHT22;10746;50.178;8.186;2023-03-05T11:25:57;4.90;99.90
21176;DHT22;10746;50.178;8.186;2023-03-05T11:28:27;4.90;99.90
21176;DHT22;10746;50.178;8.186;2023-03-05T11:31:01;4.80;99.90
21176;DHT22;10746;50.178;8.186;2023-03-05T11:33:29;4.50;99.90
21176;DHT22;10746;50.178;8.186;2023-03-05T11:36:20;4.30;99.90
21176;DHT22;10746;50.178;8.186;2023-03-05T11:38:53;4.00;99.90
21176;DHT22;10746;50.178;8.186;2023-03-05T11:41:26;4.00;99.90
21176;DHT22;10746;50.178;8.186;2023-03-05T11:43:54;3.90;99.90
21176;DHT22;10746;50.178;8.186;2023-03-05T11:46:22;3.80;99.90
21176;DHT22;10746;50.178;8.186;2023-03-05T11:48:52;3.60;99.90
21176;DHT22;10746;50.178;8.186;2023-03-05T11:51:23;3.50;99.90
21176;DHT22;10746;50.178;8.186;2023-03-05T11:53:55;3.50;99.90
21176;DHT22;10746;50.178;8.186;2023-03-05T11:56:26;3.50;99.90
21176;DHT22;10746;50.178;8.186;2023-03-05T11:58:59;3.50;99.90
21176;DHT22;10746;50.178;8.186;2023-03-05T12:01:29;3.40;99.90
21176;DHT22;10746;50.178;8.186;2023-03-05T12:03:57;3.40;99.90
21176;DHT22;10746;50.178;8.186;2023-03-05T12:06:28;3.40;99.90
21176;DHT22;10746;50.178;8.186;2023-03-05T12:08:58;3.30;99.90
21176;DHT22;10746;50.178;8.186;2023-03-05T12:11:27;3.40;99.90
21176;DHT22;10746;50.178;8.186;2023-03-05T12:13:56;3.40;99.90
21176;DHT22;10746;50.178;8.186;2023-03-05T12:16:27;3.40;99.90
21176;DHT22;10746;50.178;8.186;2023-03-05T12:19:24;3.40;99.90
21176;DHT22;10746;50.178;8.186;2023-03-05T12:21:55;3.40;99.90
21176;DHT22;10746;50.178;8.186;2023-03-05T12:24:36;3.30;99.90
21176;DHT22;10746;50.178;8.186;2023-03-05T12:27:09;3.30;99.90
21176;DHT22;10746;50.178;8.186;2023-03-05T12:29:46;3.20;99.90
21176;DHT22;10746;50.178;8.186;2023-03-05T12:35:25;3.30;99.90
21176;DHT22;10746;50.178;8.186;2023-03-05T12:37:59;3.20;99.90
21176;DHT22;10746;50.178;8.186;2023-03-05T12:40:29;3.20;99.90
21176;DHT22;10746;50.178;8.186;2023-03-05T12:42:58;3.30;99.90
21176;DHT22;10746;50.178;8.186;2023-03-05T12:45:36;3.30;99.90
21176;DHT22;10746;50.178;8.186;2023-03-05T12:48:44;3.40;99.90
21176;DHT22;10746;50.178;8.186;2023-03-05T12:51:27;3.60;99.90
21176;DHT22;10746;50.178;8.186;2023-03-05T12:53:56;3.70;99.90
21176;DHT22;10746;50.178;8.186;2023-03-05T12:56:28;3.70;99.90
21176;DHT22;10746;50.178;8.186;2023-03-05T12:58:58;3.70;99.90
21176;DHT22;10746;50.178;8.186;2023-03-05T13:01:33;3.80;99.90
21176;DHT22;10746;50.178;8.186;2023-03-05T13:04:03;3.70;99.90
21176;DHT22;10746;50.178;8.186;2023-03-05T13:06:36;3.70;99.90
21176;DHT22;10746;50.178;8.186;2023-03-05T13:09:07;3.60;99.90
21176;DHT22;10746;50.178;8.186;2023-03-05T13:11:41;3.60;99.90
21176;DHT22;10746;50.178;8.186;2023-03-05T13:14:41;3.60;99.90
21176;DHT22;10746;50.178;8.186;2023-03-05T13:17:29;3.50;99.90
21176;DHT22;10746;50.178;8.186;2023-03-05T13:19:57;3.50;99.90
21176;DHT22;10746;50.178;8.186;2023-03-05T13:22:25;3.60;99.90
21176;DHT22;10746;50.178;8.186;2023-03-05T13:25:12;3.60;99.90
21176;DHT22;10746;50.178;8.186;2023-03-05T13:27:42;3.50;99.90
21176;DHT22;10746;50.178;8.186;2023-03-05T13:30:21;3.50;99.90
21176;DHT22;10746;50.178;8.186;2023-03-05T13:32:50;3.60;99.90
21176;DHT22;10746;50.178;8.186;2023-03-05T13:35:18;3.50;99.90
21176;DHT22;10746;50.178;8.186;2023-03-05T13:37:47;3.40;99.90
21176;DHT22;10746;50.178;8.186;2023-03-05T13:40:19;3.40;99.90
21176;DHT22;10746;50.178;8.186;2023-03-05T13:42:49;3.40;99.90
21176;DHT22;10746;50.178;8.186;2023-03-05T13:45:24;3.40;99.90
21176;DHT22;10746;50.178;8.186;2023-03-05T13:47:53;3.30;99.90
21176;DHT22;10746;50.178;8.186;2023-03-05T13:50:23;3.30;99.90
21176;DHT22;10746;50.178;8.186;2023-03-05T13:52:50;3.40;99.90
21176;DHT22;10746;50.178;8.186;2023-03-05T13:55:17;3.40;99.90
21176;DHT22;10746;50.178;8.186;2023-03-05T13:57:46;3.30;99.90
21176;DHT22;10746;50.178;8.186;2023-03-05T14:00:31;3.30;99.90
21176;DHT22;10746;50.178;8.186;2023-03-05T14:03:00;3.30;99.90
21176;DHT22;10746;50.178;8.186;2023-03-05T14:05:32;3.30;99.90
21176;DHT22;10746;50.178;8.186;2023-03-05T14:07:59;3.30;99.90
21176;DHT22;10746;50.178;8.186;2023-03-05T14:10:29;3.30;99.90
21176;DHT22;10746;50.178;8.186;2023-03-05T14:12:57;3.40;99.90
21176;DHT22;10746;50.178;8.186;2023-03-05T14:15:28;3.40;99.90
21176;DHT22;10746;50.178;8.186;2023-03-05T14:18:11;3.40;99.90
21176;DHT22;10746;50.178;8.186;2023-03-05T14:20:58;3.40;99.90
21176;DHT22;10746;50.178;8.186;2023-03-05T14:23:30;3.40;99.90
21176;DHT22;10746;50.178;8.186;2023-03-05T14:28:53;3.30;99.90
21176;DHT22;10746;50.178;8.186;2023-03-05T14:31:23;3.30;99.90
21176;DHT22;10746;50.178;8.186;2023-03-05T14:33:52;3.30;99.90
21176;DHT22;10746;50.178;8.186;2023-03-05T14:36:22;3.20;99.90
21176;DHT22;10746;50.178;8.186;2023-03-05T14:38:50;3.10;99.90
21176;DHT22;10746;50.178;8.186;2023-03-05T14:41:20;3.20;99.90
21176;DHT22;10746;50.178;8.186;2023-03-05T14:43:47;3.10;99.90
21176;DHT22;10746;50.178;8.186;2023-03-05T14:46:14;3.00;99.90
21176;DHT22;10746;50.178;8.186;2023-03-05T14:48:42;3.00;99.90
21176;DHT22;10746;50.178;8.186;2023-03-05T14:51:09;3.00;99.90
21176;DHT22;10746;50.178;8.186;2023-03-05T14:53:41;3.00;99.90
21176;DHT22;10746;50.178;8.186;2023-03-05T14:56:16;3.10;99.90
21176;DHT22;10746;50.178;8.186;2023-03-05T14:58:44;3.10;99.90
21176;DHT22;10746;50.178;8.186;2023-03-05T15:01:11;3.20;99.90
21176;DHT22;10746;50.178;8.186;2023-03-05T15:03:38;3.20;99.90
21176;DHT22;10746;50.178;8.186;2023-03-05T15:06:07;3.10;99.90
21176;DHT22;10746;50.178;8.186;2023-03-05T15:08:40;3.10;99.90
21176;DHT22;10746;50.178;8.186;2023-03-05T15:11:07;3.10;99.90
21176;DHT22;10746;50.178;8.186;2023-03-05T15:13:33;3.00;99.90
21176;DHT22;10746;50.178;8.186;2023-03-05T15:16:01;3.00;99.90
21176;DHT22;10746;50.178;8.186;2023-03-05T15:18:27;3.00;99.90
21176;DHT22;10746;50.178;8.186;2023-03-05T15:20:55;3.00;99.90
21176;DHT22;10746;50.178;8.186;2023-03-05T15:23:23;3.00;99.90
21176;DHT22;10746;50.178;8.186;2023-03-05T15:25:50;3.10;99.90
21176;DHT22;10746;50.178;8.186;2023-03-05T15:28:17;3.10;99.90
21176;DHT22;10746;50.178;8.186;2023-03-05T15:30:45;3.10;99.90
21176;DHT22;10746;50.178;8.186;2023-03-05T15:33:13;3.00;99.90
21176;DHT22;10746;50.178;8.186;2023-03-05T15:35:41;2.90;99.90
21176;DHT22;10746;50.178;8.186;2023-03-05T15:38:07;2.90;99.90
21176;DHT22;10746;50.178;8.186;2023-03-05T15:40:36;2.90;99.90
21176;DHT22;10746;50.178;8.186;2023-03-05T15:43:02;2.90;99.90
21176;DHT22;10746;50.178;8.186;2023-03-05T15:45:29;2.80;99.90
21176;DHT22;10746;50.178;8.186;2023-03-05T15:47:56;2.80;99.90
21176;DHT22;10746;50.178;8.186;2023-03-05T15:50:23;2.80;99.90
21176;DHT22;10746;50.178;8.186;2023-03-05T15:52:50;2.80;99.90
21176;DHT22;10746;50.178;8.186;2023-03-05T15:55:17;2.80;99.90
21176;DHT22;10746;50.178;8.186;2023-03-05T15:57:47;2.80;99.90
21176;DHT22;10746;50.178;8.186;2023-03-05T16:00:17;2.80;99.90
21176;DHT22;10746;50.178;8.186;2023-03-05T16:02:44;2.80;99.90
21176;DHT22;10746;50.178;8.186;2023-03-05T16:05:11;2.70;99.90
21176;DHT22;10746;50.178;8.186;2023-03-05T16:07:40;2.70;99.90